Extreme high temperature From: 16-07-2018 05:00 Until: 19:00 warning for: Extreme high temperature Level: Yellow info button
suomi:
Hellevaroitus: Lähivuorokauden aikana on odotettavissa tukalaa hellettä.

svenska:
Varning för värmebölja: Under det närmaste dygnet är den svåra hettan att vänta.

english:
Heat wave warning: Warm weather is expected during the coming 24 hours. 


Thunder radar more information blitzortung!


Löydät sääaseman tiedot myös:

European Weather Network

Finland Weather Exchange

Weather Underground

AWEKAS



Weather Underground säähistoriasivu

Päivittäin yhteenveto Tou 6, 2017 Yksiköt:  Metriset    Englantilaiset   Molemmat
« Edellinen Päivä
Seuraava Päivä »
Päivittäin Viikoittain Kuukausittain Vuosittain Mukautettu
  Korkea: Matala: Keskiarvo:
Lämpötila: -17.8 °C -17.9 °C -13.8 °C
Kastepiste: -17.8 °C -20.9 °C -17.8 °C
Kosteus: Humidity % 43 % 61 %
Tuulen nopeus: 0 km/h 0 km/h 5.3 km/h
Tuulenpuuska: 0 km/h - -
Tuuli:- - SE
Ilmanpaine: 0 hPa 34313.7 hPa -
Sade: 0 mm    
Historical Graphs
 
 
Taulukkotiedot Tou 6, 2017
Aika Lämpötila Kastepiste Ilmanpaine Tuuli Tuulen nopeus Tuulenpuuska Kosteus Sademäärä (tunneittain)
-17.8 °C -17.8 °C 0 hPa Calm     Humidity % 0 mm
00:00 -12.2 °C -14.6 °C 34327.3 hPa NW 2.6 km/h 15.6 km/h 75 % 0 mm
00:15 -12.3 °C -14.5 °C 34313.7 hPa WNW 2.6 km/h 12.9 km/h 76 % 0 mm
00:30 -12.3 °C -14.6 °C 34313.7 hPa NW 5.1 km/h 12.9 km/h 76 % 0 mm
00:45 -12.4 °C -14.7 °C 34313.7 hPa NW 2.6 km/h 7.7 km/h 76 % 0 mm
01:00 -12.4 °C -14.7 °C 34313.7 hPa NW 7.7 km/h 15.6 km/h 76 % 0 mm
01:15 -12.4 °C -14.7 °C 34313.7 hPa NW 5.1 km/h 15.6 km/h 76 % 0 mm
01:30 -12.6 °C -14.8 °C 34313.7 hPa NW 7.7 km/h 18.2 km/h 76 % 0 mm
01:45 -12.7 °C -14.8 °C 34313.7 hPa NW 5.1 km/h 15.6 km/h 77 % 0 mm
02:00 -12.8 °C -14.8 °C 34313.7 hPa NW 10.3 km/h 18.2 km/h 78 % 0 mm
02:15 -12.9 °C -14.9 °C 34313.7 hPa NNW 7.7 km/h 25.9 km/h 78 % 0 mm
02:30 -13.2 °C -15.2 °C 34313.7 hPa NNW 5.1 km/h 10.3 km/h 78 % 0 mm
02:45 -13.3 °C -15.4 °C 34313.7 hPa North 2.6 km/h 15.6 km/h 77 % 0 mm
03:00 -13.5 °C -15.6 °C 34327.3 hPa NNE 2.6 km/h 10.3 km/h 77 % 0 mm
03:15 -13.6 °C -15.7 °C 34327.3 hPa Calm   7.7 km/h 77 % 0 mm
03:30 -13.7 °C -15.7 °C 34327.3 hPa Calm   10.3 km/h 78 % 0 mm
03:45 -13.6 °C -15.7 °C 34337.4 hPa NNE 2.6 km/h 10.3 km/h 77 % 0 mm
04:00 -13.5 °C -15.7 °C 34337.4 hPa NNE 2.6 km/h 7.7 km/h 76 % 0 mm
04:15 -13.4 °C -15.8 °C 34337.4 hPa Calm   5.1 km/h 75 % 0 mm
04:30 -13.5 °C -15.8 °C 34337.4 hPa Calm   5.1 km/h 75 % 0 mm
04:45 -13.5 °C -15.8 °C 34337.4 hPa NNW 2.6 km/h 15.6 km/h 75 % 0 mm
05:00 -13.6 °C -15.9 °C 34347.6 hPa NNE 2.6 km/h 10.3 km/h 75 % 0 mm
05:15 -13.7 °C -16 °C 34347.6 hPa NNW 2.6 km/h 10.3 km/h 75 % 0 mm
05:30 -13.9 °C -16.1 °C 34347.6 hPa NNW 2.6 km/h 7.7 km/h 76 % 0 mm
05:45 -14.1 °C -16.3 °C 34347.6 hPa Calm   5.1 km/h 76 % 0 mm
06:00 -14.3 °C -16.3 °C 34361.1 hPa Calm   2.6 km/h 78 % 0 mm
06:15 -14.3 °C -16.2 °C 34361.1 hPa NNE 2.6 km/h 7.7 km/h 78 % 0 mm
06:30 -14.2 °C -16.2 °C 34371.3 hPa NNE 2.6 km/h 7.7 km/h 78 % 0 mm
06:45 -14.3 °C -16.2 °C 34384.8 hPa North 5.1 km/h 12.9 km/h 79 % 0 mm
07:00 -14.2 °C -16 °C 34384.8 hPa NNE 2.6 km/h 12.9 km/h 80 % 0 mm
07:15 -13.8 °C -15.8 °C 34384.8 hPa NNE 2.6 km/h 10.3 km/h 78 % 0 mm
07:30 -13.8 °C -15.8 °C 34384.8 hPa NNE 2.6 km/h 7.7 km/h 77 % 0 mm
07:45 -13.7 °C -15.8 °C 34395 hPa North 5.1 km/h 15.6 km/h 77 % 0 mm
08:00 -13.8 °C -15.8 °C 34395 hPa NNE 2.6 km/h 10.3 km/h 77 % 0 mm
08:15 -13.7 °C -15.8 °C 34405.1 hPa NNE 2.6 km/h 10.3 km/h 77 % 0 mm
08:30 -13.7 °C -15.9 °C 34405.1 hPa NNE 2.6 km/h 12.9 km/h 76 % 0 mm
08:45 -13.5 °C -16.3 °C 34418.7 hPa NNE 5.1 km/h 12.9 km/h 70 % 0 mm
09:00 -13.4 °C -16.8 °C 34418.7 hPa NNE 5.1 km/h 18.2 km/h 65 % 0 mm
09:15 -13.2 °C -16.9 °C 34418.7 hPa North 2.6 km/h 12.9 km/h 63 % 0 mm
09:30 -13 °C -17.1 °C 34418.7 hPa North 5.1 km/h 18.2 km/h 60 % 0 mm
09:45 -12.9 °C -17.6 °C 34418.7 hPa NNE 7.7 km/h 15.6 km/h 56 % 0 mm
10:00 -13 °C -17.4 °C 34428.8 hPa NNE 5.1 km/h 15.6 km/h 57 % 0 mm
10:15 -12.9 °C -17.3 °C 34442.4 hPa NNE 7.7 km/h 20.8 km/h 57 % 0 mm
10:30 -12.8 °C -17.8 °C 34442.4 hPa North 7.7 km/h 23.3 km/h 53 % 0 mm
10:45 -12.8 °C -17.4 °C 34442.4 hPa NNE 7.7 km/h 25.9 km/h 56 % 0 mm
11:00 -12.6 °C -17.4 °C 34442.4 hPa NNE 7.7 km/h 12.9 km/h 55 % 0 mm
11:15 -12.6 °C -17.3 °C 34452.6 hPa North 7.7 km/h 18.2 km/h 56 % 0 mm
11:30 -12.7 °C -17.7 °C 34452.6 hPa NNE 7.7 km/h 18.2 km/h 53 % 0 mm
11:45 -12.7 °C -18 °C 34452.6 hPa North 7.7 km/h 20.8 km/h 51 % 0 mm
12:00 -12.7 °C -18.1 °C 34462.7 hPa North 10.3 km/h 25.9 km/h 51 % 0 mm
12:15 -12.8 °C -18.9 °C 34462.7 hPa NNE 10.3 km/h 25.9 km/h 46 % 0 mm
12:30 -12.9 °C -18.2 °C 34462.7 hPa NNE 7.7 km/h 18.2 km/h 52 % 0 mm
12:45 -12.6 °C -18.8 °C 34462.7 hPa North 7.7 km/h 25.9 km/h 46 % 0 mm
13:00 -12.7 °C -18.9 °C 34462.7 hPa North 12.9 km/h 23.3 km/h 46 % 0 mm
13:15 -12.7 °C -18.8 °C 34462.7 hPa North 10.3 km/h 23.3 km/h 46 % 0 mm
13:30 -12.9 °C -19 °C 34462.7 hPa North 12.9 km/h 23.3 km/h 46 % 0 mm
13:45 -12.9 °C -18.3 °C 34462.7 hPa North 10.3 km/h 25.9 km/h 50 % 0 mm
14:00 -12.9 °C -19.2 °C 34476.3 hPa North 10.3 km/h 28.5 km/h 45 % 0 mm
14:15 -12.9 °C -19.2 °C 34462.7 hPa North 12.9 km/h 23.3 km/h 45 % 0 mm
14:30 -13.1 °C -19.2 °C 34462.7 hPa North 10.3 km/h 23.3 km/h 46 % 0 mm
14:45 -12.9 °C -19.2 °C 34462.7 hPa North 7.7 km/h 18.2 km/h 45 % 0 mm
15:00 -13.2 °C -19.3 °C 34462.7 hPa North 10.3 km/h 20.8 km/h 46 % 0 mm
15:15 -13.2 °C -18.8 °C 34462.7 hPa North 10.3 km/h 20.8 km/h 49 % 0 mm
15:30 -13.2 °C -19.2 °C 34452.6 hPa North 10.3 km/h 23.3 km/h 47 % 0 mm
15:45 -13.1 °C -19.3 °C 34462.7 hPa North 7.7 km/h 18.2 km/h 45 % 0 mm
16:00 -13.2 °C -19.4 °C 34462.7 hPa North 10.3 km/h 31.1 km/h 45 % 0 mm
16:15 -13.4 °C -19.3 °C 34462.7 hPa North 10.3 km/h 20.8 km/h 47 % 0 mm
16:30 -13.4 °C -19.4 °C 34462.7 hPa North 7.7 km/h 18.2 km/h 46 % 0 mm
16:45 -13.3 °C -18.9 °C 34462.7 hPa NNE 7.7 km/h 28.5 km/h 49 % 0 mm
17:00 -13.6 °C -19.8 °C 34452.6 hPa North 10.3 km/h 18.2 km/h 45 % 0 mm
17:15 -13.5 °C -18.8 °C 34452.6 hPa NNE 5.1 km/h 12.9 km/h 51 % 0 mm
17:30 -13.4 °C -19.5 °C 34452.6 hPa North 7.7 km/h 25.9 km/h 46 % 0 mm
17:45 -13.7 °C -19.6 °C 34452.6 hPa NNE 7.7 km/h 15.6 km/h 47 % 0 mm
18:00 -13.8 °C -19.5 °C 34452.6 hPa North 7.7 km/h 23.3 km/h 48 % 0 mm
18:15 -13.8 °C -19.7 °C 34452.6 hPa North 7.7 km/h 20.8 km/h 47 % 0 mm
18:30 -14 °C -20.5 °C 34452.6 hPa NNE 5.1 km/h 12.9 km/h 43 % 0 mm
18:45 -14.1 °C -19.8 °C 34442.4 hPa NNE 5.1 km/h 15.6 km/h 48 % 0 mm
19:00 -14.3 °C -20.3 °C 34442.4 hPa NNE 7.7 km/h 12.9 km/h 46 % 0 mm
19:15 -14.4 °C -20.1 °C 34442.4 hPa NNE 5.1 km/h 12.9 km/h 48 % 0 mm
19:30 -14.6 °C -20 °C 34442.4 hPa NNE 5.1 km/h 12.9 km/h 50 % 0 mm
19:45 -14.8 °C -20.2 °C 34428.8 hPa North 7.7 km/h 18.2 km/h 50 % 0 mm
20:00 -15.1 °C -20.7 °C 34428.8 hPa North 5.1 km/h 12.9 km/h 48 % 0 mm
20:15 -15.3 °C -20.1 °C 34428.8 hPa NE 2.6 km/h 10.3 km/h 54 % 0 mm
20:30 -15.5 °C -20.5 °C 34428.8 hPa North 5.1 km/h 10.3 km/h 52 % 0 mm
20:45 -15.7 °C -20.8 °C 34418.7 hPa North 5.1 km/h 12.9 km/h 51 % 0 mm
21:00 -15.8 °C -20.9 °C 34428.8 hPa North 2.6 km/h 15.6 km/h 51 % 0 mm
21:15 -15.9 °C -20.8 °C 34428.8 hPa North 2.6 km/h 10.3 km/h 53 % 0 mm
21:45 -16.4 °C -20.8 °C 34428.8 hPa Calm   7.7 km/h 56 % 0 mm
22:00 -16.7 °C -20.9 °C 34418.7 hPa Calm   5.1 km/h 57 % 0 mm
22:15 -16.8 °C -20.9 °C 34418.7 hPa Calm   5.1 km/h 58 % 0 mm
22:45 -17.3 °C -20.9 °C 34418.7 hPa Calm   2.6 km/h 61 % 0 mm
23:00 -17.5 °C -20.8 °C 34418.7 hPa Calm     64 % 0 mm
23:15 -17.7 °C -20.8 °C 34418.7 hPa Calm   5.1 km/h 66 % 0 mm
23:30 -17.8 °C -20.6 °C 34418.7 hPa Calm   5.1 km/h 69 % 0 mm
23:45 -17.9 °C -20.7 °C 34418.7 hPa Calm   2.6 km/h 69 % 0 mm
Esan sääasema
Terveisin Weather Underground - 2.75 mb

Alkuperäinen skripti  Jim McMurry - jmcmurry@mwt.net Sovitettu myös templatelle  Wim van der Kuil - Leuven-Template.eu

Laitteet joita käytämme:

Sääasema
Davis VP2

Sääasemaohjelma
Cumulus

Sääaseman tietokone
Asus EeePC

Palveluntarjoaja
Suncomet

Davis VP2

Cumulus

Asus EeePC

Suncomet